createdAt,value
2018-10-05T00:00:17.039Z,89.15
2018-10-05T00:02:45.744Z,88.73
2018-10-05T00:05:14.381Z,88.70
2018-10-05T00:07:43.013Z,88.26
2018-10-05T00:10:11.642Z,88.53
2018-10-05T00:12:40.331Z,88.75
2018-10-05T00:15:08.973Z,88.23
2018-10-05T00:17:37.668Z,88.75
2018-10-05T00:20:06.331Z,88.78
2018-10-05T00:22:34.948Z,88.88
2018-10-05T00:25:03.596Z,88.94
2018-10-05T00:27:32.287Z,88.74
2018-10-05T00:30:01.008Z,88.74
2018-10-05T00:32:29.751Z,89.04
2018-10-05T00:34:58.294Z,88.86
2018-10-05T00:37:26.958Z,88.43
2018-10-05T00:39:55.648Z,88.29
2018-10-05T00:42:24.307Z,88.36
2018-10-05T00:44:52.952Z,88.80
2018-10-05T00:47:21.609Z,88.95
2018-10-05T00:49:50.237Z,88.89
2018-10-05T00:52:18.980Z,89.20
2018-10-05T00:54:47.606Z,88.68
2018-10-05T00:57:16.247Z,88.76
2018-10-05T00:59:44.898Z,88.36
2018-10-05T01:02:13.563Z,88.39
2018-10-05T01:04:42.235Z,88.40
2018-10-05T01:07:10.865Z,88.38
2018-10-05T01:09:39.524Z,88.04
2018-10-05T01:12:08.143Z,88.70
2018-10-05T01:14:36.802Z,88.54
2018-10-05T01:17:05.516Z,88.30
2018-10-05T01:19:35.345Z,88.33
2018-10-05T01:22:04.151Z,88.46
2018-10-05T01:24:32.788Z,88.43
2018-10-05T01:27:01.727Z,88.70
2018-10-05T01:29:30.498Z,88.57
2018-10-05T01:31:59.181Z,89.32
2018-10-05T01:34:27.868Z,89.17
2018-10-05T01:36:56.594Z,88.85
2018-10-05T01:39:25.253Z,89.10
2018-10-05T01:41:53.977Z,89.29
2018-10-05T01:44:22.537Z,89.31
2018-10-05T01:46:51.177Z,89.08
2018-10-05T01:49:19.837Z,89.05
2018-10-05T01:51:48.494Z,88.47
2018-10-05T01:54:17.090Z,88.92
2018-10-05T01:56:45.746Z,88.79
2018-10-05T01:59:14.459Z,88.61
2018-10-05T02:01:43.136Z,88.80
2018-10-05T02:04:11.806Z,88.44
2018-10-05T02:06:40.457Z,88.23
2018-10-05T02:09:09.086Z,88.47
2018-10-05T02:11:37.744Z,89.09
2018-10-05T02:14:06.448Z,88.46
2018-10-05T02:16:35.063Z,88.52
2018-10-05T02:19:03.693Z,88.98
2018-10-05T02:21:32.331Z,88.88
2018-10-05T02:24:00.990Z,88.70
2018-10-05T02:26:30.159Z,88.59
2018-10-05T02:28:58.754Z,88.78
2018-10-05T02:31:27.424Z,88.97
2018-10-05T02:33:56.053Z,89.17
2018-10-05T02:36:24.739Z,88.62
2018-10-05T02:38:53.364Z,88.42
2018-10-05T02:41:21.990Z,88.72
2018-10-05T02:43:50.609Z,88.65
2018-10-05T02:46:19.237Z,88.89
2018-10-05T02:48:47.862Z,89.39
2018-10-05T02:51:16.531Z,89.48
2018-10-05T02:53:45.157Z,89.55
2018-10-05T02:56:13.835Z,89.39
2018-10-05T02:58:42.467Z,89.60
2018-10-05T03:01:22.340Z,88.95
2018-10-05T03:03:51.027Z,89.39
2018-10-05T03:06:19.671Z,89.23
2018-10-05T03:08:48.299Z,89.08
2018-10-05T03:11:16.931Z,89.29
2018-10-05T03:13:45.572Z,89.46
2018-10-05T03:16:14.195Z,89.04
2018-10-05T03:18:42.819Z,89.20
2018-10-05T03:21:11.483Z,89.23
2018-10-05T03:23:40.102Z,89.10
2018-10-05T03:26:08.751Z,88.34
2018-10-05T03:28:37.408Z,88.26
2018-10-05T03:31:06.065Z,88.63
2018-10-05T03:33:34.740Z,88.95
2018-10-05T03:36:03.400Z,89.50
2018-10-05T03:38:32.019Z,89.22
2018-10-05T03:41:00.675Z,89.70
2018-10-05T03:43:29.363Z,89.39
2018-10-05T03:45:58.019Z,89.86
2018-10-05T03:48:26.659Z,90.18
2018-10-05T03:50:55.283Z,89.98
2018-10-05T03:53:23.925Z,90.23
2018-10-05T03:55:52.635Z,90.52
2018-10-05T03:58:21.225Z,90.87
2018-10-05T04:00:49.840Z,89.94
2018-10-05T04:03:18.477Z,90.20
2018-10-05T04:05:47.107Z,90.27
2018-10-05T04:08:15.740Z,89.85
2018-10-05T04:10:44.410Z,89.81
2018-10-05T04:13:13.140Z,90.37
2018-10-05T04:15:41.820Z,90.07
2018-10-05T04:18:10.623Z,90.44
2018-10-05T04:20:39.284Z,90.05
2018-10-05T04:23:08.644Z,89.83
2018-10-05T04:25:37.480Z,90.31
2018-10-05T04:28:06.192Z,90.04
2018-10-05T04:30:34.812Z,90.21
2018-10-05T04:33:03.480Z,90.03
2018-10-05T04:35:32.164Z,90.07
2018-10-05T04:38:00.818Z,89.90
2018-10-05T04:40:29.498Z,89.68
2018-10-05T04:42:58.080Z,89.58
2018-10-05T04:45:26.722Z,90.26
2018-10-05T04:47:55.345Z,90.08
2018-10-05T04:50:24.007Z,89.42
2018-10-05T04:52:52.628Z,89.07
2018-10-05T04:55:21.286Z,89.04
2018-10-05T04:57:49.944Z,89.81
2018-10-05T05:00:18.600Z,89.62
2018-10-05T05:02:47.263Z,89.55
2018-10-05T05:05:15.914Z,89.03
2018-10-05T05:07:44.558Z,88.74
2018-10-05T05:10:13.213Z,88.44
2018-10-05T05:12:41.895Z,88.04
2018-10-05T05:15:10.564Z,88.38
2018-10-05T05:17:39.191Z,88.78
2018-10-05T05:20:07.827Z,88.39
2018-10-05T05:22:36.468Z,88.23
2018-10-05T05:25:05.059Z,89.08
2018-10-05T05:27:33.676Z,88.99
2018-10-05T05:30:02.363Z,89.12
2018-10-05T05:32:31.032Z,89.30
2018-10-05T05:34:59.700Z,89.82
2018-10-05T05:37:28.356Z,89.71
2018-10-05T05:39:56.968Z,90.27
2018-10-05T05:42:25.614Z,89.88
2018-10-05T05:44:54.301Z,89.76
2018-10-05T05:47:22.955Z,89.39
2018-10-05T05:49:51.596Z,89.87
2018-10-05T05:52:20.271Z,89.91
2018-10-05T05:54:48.891Z,90.01
2018-10-05T05:57:17.549Z,89.00
2018-10-05T05:59:46.237Z,88.48
2018-10-05T06:02:14.909Z,88.05
2018-10-05T06:04:43.523Z,88.32
2018-10-05T06:07:12.267Z,88.12
2018-10-05T06:09:40.881Z,88.33
2018-10-05T06:12:09.739Z,87.86
2018-10-05T06:14:38.405Z,87.85
2018-10-05T06:17:07.079Z,88.04
2018-10-05T06:19:35.665Z,88.13
2018-10-05T06:22:04.453Z,87.81
2018-10-05T06:24:33.015Z,87.46
2018-10-05T06:27:01.674Z,87.92
2018-10-05T06:29:30.315Z,87.80
2018-10-05T06:31:58.966Z,87.31
2018-10-05T06:34:27.609Z,87.19
2018-10-05T06:36:56.244Z,87.81
2018-10-05T06:39:24.921Z,87.67
2018-10-05T06:41:53.621Z,87.39
2018-10-05T06:44:22.343Z,87.05
2018-10-05T06:46:51.107Z,86.40
2018-10-05T06:49:20.119Z,86.40
2018-10-05T06:51:48.804Z,86.55
2018-10-05T06:54:17.545Z,85.44
2018-10-05T06:56:46.181Z,85.88
2018-10-05T06:59:14.829Z,85.67
2018-10-05T07:01:43.541Z,85.19
2018-10-05T07:04:12.171Z,85.26
2018-10-05T07:06:40.831Z,84.37
2018-10-05T07:09:09.442Z,84.56
2018-10-05T07:11:38.081Z,84.14
2018-10-05T07:14:06.781Z,84.08
2018-10-05T07:16:35.431Z,83.71
2018-10-05T07:19:04.110Z,84.39
2018-10-05T07:21:32.740Z,83.91
2018-10-05T07:24:01.360Z,83.79
2018-10-05T07:26:30.040Z,83.33
2018-10-05T07:28:58.735Z,84.13
2018-10-05T07:31:27.422Z,83.34
2018-10-05T07:33:56.130Z,82.71
2018-10-05T07:36:24.835Z,81.56
2018-10-05T07:38:53.508Z,80.71
2018-10-05T07:41:22.168Z,80.57
2018-10-05T07:43:51.482Z,80.04
2018-10-05T07:46:20.176Z,79.10
2018-10-05T07:48:48.820Z,78.90
2018-10-05T07:51:17.570Z,78.11
2018-10-05T07:53:46.278Z,77.83
2018-10-05T07:56:14.967Z,77.74
2018-10-05T07:58:43.612Z,77.06
2018-10-05T08:01:12.397Z,76.55
2018-10-05T08:03:41.036Z,75.20
2018-10-05T08:06:10.021Z,75.26
2018-10-05T08:08:38.665Z,75.35
2018-10-05T08:11:07.867Z,74.61
2018-10-05T08:13:36.936Z,72.84
2018-10-05T08:16:05.547Z,72.66
2018-10-05T08:18:34.472Z,73.04
2018-10-05T08:21:07.089Z,72.60
2018-10-05T08:23:36.240Z,71.24
2018-10-05T08:26:04.941Z,70.82
2018-10-05T08:28:33.567Z,71.28
2018-10-05T08:31:02.849Z,70.89
2018-10-05T08:33:31.735Z,70.56
2018-10-05T08:36:00.378Z,68.34
2018-10-05T08:38:29.278Z,67.94
2018-10-05T08:40:58.891Z,67.66
2018-10-05T08:43:27.700Z,65.67
2018-10-05T08:45:56.485Z,63.83
2018-10-05T08:48:25.099Z,64.38
2018-10-05T08:50:53.763Z,62.54
2018-10-05T08:53:22.476Z,61.87
2018-10-05T08:55:51.450Z,60.73
2018-10-05T08:58:20.135Z,59.77
2018-10-05T09:00:48.778Z,59.24
2018-10-05T09:03:17.457Z,56.21
2018-10-05T09:05:46.268Z,57.14
2018-10-05T09:08:14.835Z,56.43
2018-10-05T09:10:43.483Z,55.21
2018-10-05T09:13:12.192Z,54.99
2018-10-05T09:15:40.850Z,53.99
2018-10-05T09:18:09.622Z,53.62
2018-10-05T09:20:38.309Z,54.00
2018-10-05T09:23:07.421Z,54.72
2018-10-05T09:25:36.081Z,51.97
2018-10-05T09:28:04.900Z,55.10
2018-10-05T09:30:33.598Z,52.22
2018-10-05T09:33:02.264Z,50.13
2018-10-05T09:35:31.059Z,52.44
2018-10-05T09:37:59.749Z,50.71
2018-10-05T09:40:28.411Z,49.76
2018-10-05T09:42:57.918Z,48.15
2018-10-05T09:45:26.588Z,48.71
2018-10-05T09:47:55.247Z,47.15
2018-10-05T09:50:23.940Z,45.94
2018-10-05T09:52:52.627Z,50.00
2018-10-05T09:55:21.270Z,47.08
2018-10-05T09:57:50.074Z,45.98
2018-10-05T10:00:24.155Z,46.40
2018-10-05T10:02:58.180Z,44.55
2018-10-05T10:05:26.826Z,43.27
2018-10-05T10:07:55.545Z,42.79
2018-10-05T10:10:24.467Z,43.20
2018-10-05T10:12:53.151Z,42.93
2018-10-05T10:15:21.848Z,42.61
2018-10-05T10:17:50.579Z,42.13
2018-10-05T10:20:19.315Z,40.76
2018-10-05T10:22:47.959Z,42.51
2018-10-05T10:25:16.854Z,43.67
2018-10-05T10:27:45.604Z,43.95
2018-10-05T10:30:14.244Z,43.48
2018-10-05T10:32:42.899Z,43.92
2018-10-05T10:35:11.499Z,42.03
2018-10-05T10:37:40.150Z,42.95
2018-10-05T10:40:08.783Z,43.66
2018-10-05T10:42:37.492Z,42.65
2018-10-05T10:45:06.338Z,43.35
2018-10-05T10:47:35.075Z,42.35
2018-10-05T10:50:03.708Z,40.89
2018-10-05T10:52:32.390Z,40.36
2018-10-05T10:55:01.135Z,40.94
2018-10-05T10:57:29.768Z,41.61
2018-10-05T10:59:58.934Z,42.83
2018-10-05T11:02:27.660Z,41.97
2018-10-05T11:04:56.377Z,44.07
2018-10-05T11:07:24.980Z,41.76
2018-10-05T11:09:53.687Z,41.11
2018-10-05T11:12:22.516Z,41.31
2018-10-05T11:14:51.302Z,43.16
2018-10-05T11:17:20.003Z,42.57
2018-10-05T11:19:48.960Z,43.37
2018-10-05T11:22:17.619Z,42.03
2018-10-05T11:24:46.326Z,42.16
2018-10-05T11:27:16.600Z,41.76
2018-10-05T11:29:45.446Z,43.14
2018-10-05T11:32:14.111Z,41.47
2018-10-05T11:34:42.802Z,42.89
2018-10-05T11:37:11.554Z,42.08
2018-10-05T11:39:40.199Z,42.33
2018-10-05T11:42:08.827Z,42.37
2018-10-05T11:44:37.641Z,41.89
2018-10-05T11:47:06.569Z,41.44
2018-10-05T11:49:35.334Z,39.91
2018-10-05T11:52:04.008Z,40.17
2018-10-05T11:54:32.734Z,39.85
2018-10-05T11:57:01.498Z,41.68
2018-10-05T11:59:30.325Z,40.25
2018-10-05T12:01:59.006Z,40.89
2018-10-05T12:04:27.697Z,41.08
2018-10-05T12:06:56.396Z,41.10
2018-10-05T12:09:25.210Z,41.73
2018-10-05T12:11:53.861Z,41.44
2018-10-05T12:14:22.527Z,41.34
2018-10-05T12:16:51.191Z,41.52
2018-10-05T12:19:19.983Z,41.99
2018-10-05T12:21:49.064Z,42.24
2018-10-05T12:24:17.833Z,42.04
2018-10-05T12:26:46.643Z,41.55
2018-10-05T12:29:15.259Z,41.50
2018-10-05T12:31:43.986Z,40.86
2018-10-05T12:34:12.582Z,41.15
2018-10-05T12:36:41.238Z,41.40
2018-10-05T12:39:10.079Z,41.37
2018-10-05T12:41:39.134Z,41.44
2018-10-05T12:44:08.412Z,40.59
2018-10-05T12:46:37.685Z,40.67
2018-10-05T12:49:06.701Z,40.61
2018-10-05T12:51:35.343Z,40.46
2018-10-05T12:54:04.042Z,39.89
2018-10-05T12:56:32.705Z,40.66
2018-10-05T12:59:01.331Z,40.41
2018-10-05T13:01:29.984Z,38.89
2018-10-05T13:03:58.619Z,40.27
2018-10-05T13:06:27.327Z,39.48
2018-10-05T13:09:03.102Z,40.37
2018-10-05T13:11:31.740Z,40.53
2018-10-05T13:14:00.347Z,40.38
2018-10-05T13:16:29.021Z,40.63
2018-10-05T13:18:57.604Z,41.17
2018-10-05T13:21:26.445Z,41.08
2018-10-05T13:23:55.057Z,42.95
2018-10-05T13:26:23.720Z,43.56
2018-10-05T13:28:52.361Z,43.22
2018-10-05T13:31:21.219Z,42.67
2018-10-05T13:33:49.916Z,42.51
2018-10-05T13:36:18.661Z,42.34
2018-10-05T13:38:47.361Z,41.83
2018-10-05T13:41:16.027Z,42.08
2018-10-05T13:43:44.709Z,42.06
2018-10-05T13:46:13.364Z,41.99
2018-10-05T13:48:42.059Z,41.99
2018-10-05T13:51:10.712Z,41.29
2018-10-05T13:53:39.348Z,41.29
2018-10-05T13:56:07.998Z,42.04
2018-10-05T13:58:36.703Z,42.30
2018-10-05T14:01:05.391Z,42.15
2018-10-05T14:03:34.015Z,42.52
2018-10-05T14:06:02.695Z,42.47
2018-10-05T14:08:31.411Z,43.40
2018-10-05T14:11:00.202Z,44.39
2018-10-05T14:13:28.872Z,44.89
2018-10-05T14:15:57.818Z,45.91
2018-10-05T14:18:26.852Z,45.91
2018-10-05T14:20:55.827Z,46.84
2018-10-05T14:23:25.036Z,47.20
2018-10-05T14:25:53.830Z,47.46
2018-10-05T14:28:22.507Z,47.55
2018-10-05T14:30:51.757Z,47.87
2018-10-05T14:33:20.750Z,47.94
2018-10-05T14:35:49.432Z,48.42
2018-10-05T14:38:18.085Z,48.29
2018-10-05T14:40:46.796Z,48.26
2018-10-05T14:43:15.497Z,49.06
2018-10-05T14:45:44.164Z,48.88
2018-10-05T14:48:12.809Z,49.08
2018-10-05T14:50:41.555Z,49.39
2018-10-05T14:53:10.504Z,49.72
2018-10-05T14:55:39.411Z,49.81
2018-10-05T14:58:08.451Z,50.04
2018-10-05T15:00:37.317Z,49.81
2018-10-05T15:03:06.034Z,50.38
2018-10-05T15:05:34.693Z,50.32
2018-10-05T15:08:03.420Z,50.40
2018-10-05T15:10:32.124Z,50.31
2018-10-05T15:13:00.826Z,50.55
2018-10-05T15:15:29.453Z,50.98
2018-10-05T15:17:58.119Z,51.03
2018-10-05T15:20:26.787Z,51.44
2018-10-05T15:22:55.474Z,52.38
2018-10-05T15:25:24.151Z,52.45
2018-10-05T15:27:52.914Z,52.78
2018-10-05T15:30:21.601Z,52.74
2018-10-05T15:32:50.313Z,53.17
2018-10-05T15:35:18.947Z,53.20
2018-10-05T15:37:47.681Z,53.56
2018-10-05T15:40:16.392Z,53.19
2018-10-05T15:42:45.106Z,53.54
2018-10-05T15:45:13.985Z,53.63
2018-10-05T15:47:42.768Z,53.76
2018-10-05T15:50:11.425Z,53.69
2018-10-05T15:52:40.108Z,53.44
2018-10-05T15:55:08.740Z,54.02
2018-10-05T15:57:37.448Z,54.39
2018-10-05T16:00:06.159Z,54.98
2018-10-05T16:02:36.027Z,54.88
2018-10-05T16:05:05.052Z,55.07
2018-10-05T16:07:34.311Z,55.08
2018-10-05T16:10:03.043Z,55.26
2018-10-05T16:12:31.779Z,56.50
2018-10-05T16:15:00.348Z,56.31
2018-10-05T16:17:29.613Z,57.23
2018-10-05T16:19:58.241Z,57.57
2018-10-05T16:22:26.894Z,57.61
2018-10-05T16:24:55.648Z,57.99
2018-10-05T16:27:24.287Z,58.75
2018-10-05T16:29:52.924Z,58.93
2018-10-05T16:32:21.583Z,59.24
2018-10-05T16:34:50.209Z,59.78
2018-10-05T16:37:18.915Z,59.86
2018-10-05T16:39:47.554Z,60.41
2018-10-05T16:42:16.277Z,60.85
2018-10-05T16:44:45.434Z,61.03
2018-10-05T16:47:14.085Z,61.80
2018-10-05T16:49:42.744Z,61.98
2018-10-05T16:52:11.367Z,62.42
2018-10-05T16:54:40.120Z,62.42
2018-10-05T16:57:08.784Z,62.53
2018-10-05T16:59:37.424Z,63.19
2018-10-05T17:02:06.102Z,63.39
2018-10-05T17:04:34.913Z,63.44
2018-10-05T17:07:03.599Z,63.47
2018-10-05T17:09:32.981Z,63.55
2018-10-05T17:12:01.774Z,63.45
2018-10-05T17:14:30.942Z,64.13
2018-10-05T17:17:00.245Z,64.25
2018-10-05T17:19:28.980Z,63.92
2018-10-05T17:21:57.615Z,63.38
2018-10-05T17:24:26.294Z,63.59
2018-10-05T17:26:54.933Z,63.55
2018-10-05T17:29:23.683Z,63.00
2018-10-05T17:31:52.283Z,63.93
2018-10-05T17:34:21.255Z,64.22
2018-10-05T17:36:49.906Z,64.51
2018-10-05T17:39:19.071Z,67.38
2018-10-05T17:41:47.717Z,67.07
2018-10-05T17:44:16.401Z,67.58
2018-10-05T17:46:45.002Z,68.52
2018-10-05T17:49:13.776Z,68.09
2018-10-05T17:51:42.428Z,68.32
2018-10-05T17:54:11.067Z,67.24
2018-10-05T17:56:39.890Z,68.28
2018-10-05T17:59:08.652Z,67.80
2018-10-05T18:01:37.384Z,68.57
2018-10-05T18:04:06.283Z,68.57
2018-10-05T18:06:34.987Z,67.93
2018-10-05T18:09:05.007Z,69.08
2018-10-05T18:11:33.674Z,67.71
2018-10-05T18:14:02.458Z,68.02
2018-10-05T18:16:31.115Z,68.01
2018-10-05T18:18:59.749Z,68.53
2018-10-05T18:21:28.367Z,67.81
2018-10-05T18:23:57.145Z,68.04
2018-10-05T18:26:25.827Z,68.14
2018-10-05T18:28:54.835Z,68.08
2018-10-05T18:31:23.458Z,68.05
2018-10-05T18:33:52.158Z,68.86
2018-10-05T18:36:20.760Z,68.41
2018-10-05T18:38:49.519Z,68.63
2018-10-05T18:41:18.277Z,68.05
2018-10-05T18:43:46.873Z,68.09
2018-10-05T18:46:15.590Z,68.27
2018-10-05T18:48:44.928Z,68.01
2018-10-05T18:51:13.676Z,67.59
2018-10-05T18:53:42.279Z,68.25
2018-10-05T18:56:22.704Z,68.91
2018-10-05T18:58:51.326Z,68.70
2018-10-05T19:01:20.052Z,68.78
2018-10-05T19:03:48.702Z,68.85
2018-10-05T19:06:17.358Z,69.40
2018-10-05T19:08:46.032Z,69.53
2018-10-05T19:11:14.700Z,69.11
2018-10-05T19:13:43.549Z,69.37
2018-10-05T19:16:12.302Z,69.31
2018-10-05T19:18:41.176Z,69.98
2018-10-05T19:21:09.979Z,69.15
2018-10-05T19:23:38.632Z,69.64
2018-10-05T19:26:07.331Z,70.24
2018-10-05T19:28:36.083Z,69.73
2018-10-05T19:31:04.675Z,69.54
2018-10-05T19:33:33.293Z,69.02
2018-10-05T19:36:01.977Z,69.76
2018-10-05T19:38:30.571Z,69.95
2018-10-05T19:40:59.191Z,69.73
2018-10-05T19:43:27.831Z,70.28
2018-10-05T19:45:56.592Z,70.67
2018-10-05T19:48:25.203Z,70.38
2018-10-05T19:50:53.834Z,70.80
2018-10-05T19:53:22.509Z,71.25
2018-10-05T19:55:51.114Z,70.95
2018-10-05T19:58:19.948Z,71.23
2018-10-05T20:00:48.679Z,70.99
2018-10-05T20:03:17.354Z,71.40
2018-10-05T20:05:45.991Z,70.85
2018-10-05T20:08:14.936Z,71.18
2018-10-05T20:10:43.559Z,70.36
2018-10-05T20:13:12.347Z,71.56
2018-10-05T20:15:40.991Z,71.79
2018-10-05T20:18:09.742Z,71.95
2018-10-05T20:20:38.300Z,71.49
2018-10-05T20:23:06.969Z,72.13
2018-10-05T20:25:35.743Z,72.32
2018-10-05T20:28:04.480Z,72.21
2018-10-05T20:30:33.165Z,71.55
2018-10-05T20:33:01.899Z,72.69
2018-10-05T20:35:30.563Z,72.13
2018-10-05T20:37:59.203Z,72.50
2018-10-05T20:40:27.861Z,72.66
2018-10-05T20:42:56.533Z,73.05
2018-10-05T20:45:25.187Z,73.19
2018-10-05T20:47:54.015Z,73.01
2018-10-05T20:50:22.707Z,73.48
2018-10-05T20:52:51.438Z,74.08
2018-10-05T20:55:20.040Z,73.07
2018-10-05T20:57:48.684Z,74.43
2018-10-05T21:00:17.291Z,75.01
2018-10-05T21:02:45.916Z,74.81
2018-10-05T21:05:14.650Z,75.07
2018-10-05T21:07:43.455Z,75.15
2018-10-05T21:10:12.287Z,75.30
2018-10-05T21:12:41.024Z,75.23
2018-10-05T21:15:09.849Z,75.68
2018-10-05T21:17:38.499Z,75.58
2018-10-05T21:20:07.293Z,74.92
2018-10-05T21:22:36.979Z,75.18
2018-10-05T21:25:05.851Z,74.96
2018-10-05T21:27:34.571Z,74.77
2018-10-05T21:30:03.195Z,75.19
2018-10-05T21:32:31.923Z,74.84
2018-10-05T21:35:00.591Z,74.72
2018-10-05T21:37:29.313Z,74.45
2018-10-05T21:39:58.030Z,74.73
2018-10-05T21:42:26.676Z,74.83
2018-10-05T21:44:55.391Z,74.43
2018-10-05T21:47:24.049Z,75.52
2018-10-05T21:49:52.816Z,75.34
2018-10-05T21:52:21.439Z,74.91
2018-10-05T21:54:50.070Z,74.85
2018-10-05T21:57:18.707Z,75.04
2018-10-05T21:59:47.311Z,74.68
2018-10-05T22:02:15.967Z,74.82
2018-10-05T22:04:44.567Z,75.42
2018-10-05T22:07:13.200Z,75.23
2018-10-05T22:09:41.874Z,75.58
2018-10-05T22:12:10.547Z,75.94
2018-10-05T22:14:39.193Z,75.59
2018-10-05T22:17:07.827Z,75.72
2018-10-05T22:19:36.456Z,76.18
2018-10-05T22:22:05.042Z,75.87
2018-10-05T22:24:33.691Z,75.79
2018-10-05T22:27:02.339Z,75.81
2018-10-05T22:29:30.989Z,75.65
2018-10-05T22:31:59.604Z,76.13
2018-10-05T22:34:28.262Z,75.36
2018-10-05T22:36:56.885Z,75.46
2018-10-05T22:39:25.539Z,75.81
2018-10-05T22:41:54.662Z,75.87
2018-10-05T22:44:23.293Z,75.94
2018-10-05T22:46:51.958Z,76.47
2018-10-05T22:49:20.599Z,76.22
2018-10-05T22:51:49.201Z,76.59
2018-10-05T22:54:17.832Z,76.61
2018-10-05T22:56:46.467Z,76.84
2018-10-05T22:59:15.148Z,77.06
2018-10-05T23:01:43.818Z,77.25
2018-10-05T23:04:12.460Z,77.48
2018-10-05T23:06:41.247Z,77.58
2018-10-05T23:09:10.339Z,77.80
2018-10-05T23:11:39.055Z,77.86
2018-10-05T23:14:07.707Z,78.27
2018-10-05T23:16:36.353Z,78.61
2018-10-05T23:19:05.377Z,79.25
2018-10-05T23:21:34.180Z,79.06
2018-10-05T23:24:02.815Z,79.64
2018-10-05T23:26:31.457Z,79.46
2018-10-05T23:29:00.161Z,79.19
2018-10-05T23:31:28.807Z,79.27
2018-10-05T23:33:57.565Z,79.76
2018-10-05T23:36:26.211Z,79.67
2018-10-05T23:38:54.874Z,79.38
2018-10-05T23:41:23.614Z,79.96
2018-10-05T23:43:52.317Z,79.96
2018-10-05T23:46:20.931Z,80.11
2018-10-05T23:48:49.560Z,80.15
2018-10-05T23:51:18.180Z,80.02
2018-10-05T23:53:46.857Z,80.27
2018-10-05T23:56:15.483Z,80.51
2018-10-05T23:58:44.102Z,80.96
